createdAt,value
2018-05-09T00:00:20.741Z,10.43
2018-05-09T00:02:51.534Z,13.13
2018-05-09T00:05:22.476Z,8.77
2018-05-09T00:07:53.017Z,11.33
2018-05-09T00:10:23.859Z,8.30
2018-05-09T00:12:55.076Z,10.10
2018-05-09T00:15:25.673Z,9.70
2018-05-09T00:17:56.477Z,9.13
2018-05-09T00:20:27.568Z,8.83
2018-05-09T00:22:58.414Z,6.70
2018-05-09T00:25:29.371Z,8.83
2018-05-09T00:28:00.206Z,7.90
2018-05-09T00:30:32.408Z,7.10
2018-05-09T00:33:04.018Z,7.47
2018-05-09T00:35:35.622Z,6.53
2018-05-09T00:38:06.286Z,5.97
2018-05-09T00:40:36.817Z,6.30
2018-05-09T00:43:07.490Z,9.20
2018-05-09T00:45:38.515Z,8.87
2018-05-09T00:48:09.175Z,8.40
2018-05-09T00:50:40.711Z,8.13
2018-05-09T00:53:11.508Z,8.30
2018-05-09T00:55:43.752Z,10.30
2018-05-09T00:58:14.466Z,6.90
2018-05-09T01:00:46.012Z,7.70
2018-05-09T01:03:17.521Z,7.90
2018-05-09T01:05:48.447Z,8.40
2018-05-09T01:08:19.447Z,9.70
2018-05-09T01:13:50.392Z,10.10
2018-05-09T01:16:21.200Z,14.03
2018-05-09T01:18:52.042Z,8.93
2018-05-09T01:21:24.121Z,9.60
2018-05-09T01:23:54.917Z,8.30
2018-05-09T01:26:25.437Z,11.27
2018-05-09T01:28:56.456Z,8.03
2018-05-09T01:31:27.229Z,9.07
2018-05-09T01:33:58.778Z,11.23
2018-05-09T01:36:29.512Z,7.20
2018-05-09T01:39:00.242Z,9.17
2018-05-09T01:41:31.090Z,8.67
2018-05-09T01:44:02.544Z,11.20
2018-05-09T01:46:34.052Z,10.30
2018-05-09T01:49:04.875Z,9.63
2018-05-09T01:51:35.618Z,8.40
2018-05-09T01:54:06.740Z,8.30
2018-05-09T01:56:37.242Z,7.93
2018-05-09T01:59:08.519Z,10.67
2018-05-09T02:01:40.946Z,7.13
2018-05-09T02:04:11.718Z,8.23
2018-05-09T02:06:42.691Z,12.10
2018-05-09T02:09:13.531Z,9.80
2018-05-09T02:11:44.270Z,8.73
2018-05-09T02:14:15.243Z,9.20
2018-05-09T02:16:46.116Z,16.50
2018-05-09T02:19:16.995Z,10.13
2018-05-09T02:21:50.437Z,8.10
2018-05-09T02:24:21.282Z,13.87
2018-05-09T02:26:52.130Z,11.40
2018-05-09T02:29:23.278Z,9.30
2018-05-09T02:31:53.938Z,11.70
2018-05-09T02:34:25.746Z,9.97
2018-05-09T02:36:56.539Z,10.40
2018-05-09T02:39:27.331Z,10.83
2018-05-09T02:41:57.912Z,10.60
2018-05-09T02:44:29.092Z,10.40
2018-05-09T02:46:59.995Z,10.57
2018-05-09T02:49:30.863Z,10.43
2018-05-09T02:52:01.431Z,10.47
2018-05-09T02:54:32.904Z,12.23
2018-05-09T02:57:03.811Z,12.20
2018-05-09T02:59:34.681Z,10.07
2018-05-09T03:02:05.595Z,11.77
2018-05-09T03:04:36.547Z,13.13
2018-05-09T03:07:07.619Z,11.73
2018-05-09T03:09:38.755Z,10.63
2018-05-09T03:12:09.991Z,10.77
2018-05-09T03:14:40.914Z,10.60
2018-05-09T03:17:11.782Z,10.60
2018-05-09T03:19:42.309Z,12.07
2018-05-09T03:22:13.058Z,12.50
2018-05-09T03:24:45.332Z,9.80
2018-05-09T03:27:16.283Z,11.83
2018-05-09T03:29:47.156Z,13.60
2018-05-09T03:32:18.479Z,13.00
2018-05-09T03:34:49.791Z,12.60
2018-05-09T03:37:20.648Z,11.30
2018-05-09T03:39:52.214Z,14.47
2018-05-09T03:42:23.502Z,14.13
2018-05-09T03:44:54.137Z,12.60
2018-05-09T03:47:25.512Z,9.37
2018-05-09T03:49:57.629Z,10.53
2018-05-09T03:52:29.016Z,11.13
2018-05-09T03:54:59.862Z,14.00
2018-05-09T03:57:31.462Z,10.30
2018-05-09T04:04:47.303Z,9.30
2018-05-09T04:07:28.358Z,10.93
2018-05-09T04:10:00.069Z,9.13
2018-05-09T04:12:31.222Z,11.70
2018-05-09T04:15:02.166Z,15.67
2018-05-09T04:17:33.177Z,10.47
2018-05-09T04:20:04.536Z,13.90
2018-05-09T04:22:35.491Z,11.80
2018-05-09T04:25:06.458Z,14.70
2018-05-09T04:27:37.656Z,9.97
2018-05-09T04:30:08.876Z,9.47
2018-05-09T04:32:39.882Z,9.20
2018-05-09T04:35:10.743Z,10.37
2018-05-09T04:37:41.627Z,12.00
2018-05-09T04:40:12.518Z,15.97
2018-05-09T04:42:43.323Z,11.53
2018-05-09T04:45:14.610Z,12.77
2018-05-09T04:47:45.451Z,13.10
2018-05-09T04:50:16.168Z,11.47
2018-05-09T04:52:47.099Z,9.63
2018-05-09T04:55:17.950Z,11.20
2018-05-09T04:57:48.874Z,14.40
2018-05-09T05:00:20.366Z,10.70
2018-05-09T05:02:51.537Z,11.73
2018-05-09T05:05:23.369Z,9.10
2018-05-09T05:07:54.707Z,18.17
2018-05-09T05:10:26.066Z,13.23
2018-05-09T05:12:57.108Z,16.03
2018-05-09T05:15:28.559Z,11.10
2018-05-09T05:17:59.323Z,14.80
2018-05-09T05:20:30.302Z,12.60
2018-05-09T05:23:01.754Z,13.90
2018-05-09T05:25:33.357Z,18.10
2018-05-09T05:28:04.255Z,12.37
2018-05-09T05:30:35.457Z,15.57
2018-05-09T05:33:06.795Z,14.90
2018-05-09T05:35:37.579Z,16.90
2018-05-09T05:38:09.131Z,11.90
2018-05-09T05:40:40.722Z,9.50
2018-05-09T05:43:11.502Z,14.40
2018-05-09T05:45:42.887Z,15.53
2018-05-09T05:48:14.689Z,11.07
2018-05-09T05:50:45.291Z,10.43
2018-05-09T05:53:16.161Z,9.43
2018-05-09T05:55:47.520Z,18.23
2018-05-09T05:58:18.626Z,8.97
2018-05-09T06:00:49.374Z,14.73
2018-05-09T06:03:21.491Z,18.53
2018-05-09T06:05:52.217Z,11.37
2018-05-09T06:08:23.030Z,11.10
2018-05-09T06:10:54.914Z,10.03
2018-05-09T06:13:26.615Z,9.63
2018-05-09T06:15:57.714Z,10.67
2018-05-09T06:18:29.181Z,11.00
2018-05-09T06:21:00.080Z,9.53
2018-05-09T06:23:31.241Z,9.70
2018-05-09T06:26:01.988Z,13.37
2018-05-09T06:28:32.752Z,14.87
2018-05-09T06:31:04.550Z,12.10
2018-05-09T06:33:35.785Z,18.83
2018-05-09T06:36:06.593Z,8.87
2018-05-09T06:38:37.311Z,10.83
2018-05-09T06:41:08.338Z,9.80
2018-05-09T06:43:39.987Z,8.67
2018-05-09T06:46:10.655Z,12.17
2018-05-09T06:48:41.627Z,13.67
2018-05-09T06:51:12.318Z,11.40
2018-05-09T06:53:43.233Z,9.10
2018-05-09T06:56:15.609Z,9.23
2018-05-09T06:58:46.880Z,14.17
2018-05-09T07:01:18.561Z,13.63
2018-05-09T07:03:50.634Z,9.40
2018-05-09T07:06:21.602Z,13.67
2018-05-09T07:08:52.373Z,8.40
2018-05-09T07:11:23.884Z,15.70
2018-05-09T07:13:54.766Z,9.50
2018-05-09T07:16:25.439Z,9.93
2018-05-09T07:18:56.407Z,9.60
2018-05-09T07:21:27.271Z,12.33
2018-05-09T07:24:00.605Z,8.97
2018-05-09T07:26:32.545Z,7.10
2018-05-09T07:29:04.155Z,14.50
2018-05-09T07:31:37.565Z,9.63
2018-05-09T07:34:09.817Z,9.30
2018-05-09T07:36:43.103Z,8.80
2018-05-09T07:39:14.475Z,13.50
2018-05-09T07:41:45.208Z,10.80
2018-05-09T07:44:16.538Z,10.23
2018-05-09T07:46:47.373Z,9.63
2018-05-09T07:49:18.227Z,9.47
2018-05-09T07:51:49.923Z,9.03
2018-05-09T07:54:20.730Z,9.60
2018-05-09T07:56:51.897Z,20.53
2018-05-09T07:59:23.118Z,6.70
2018-05-09T08:01:54.295Z,11.63
2018-05-09T08:04:25.033Z,9.47
2018-05-09T08:06:56.368Z,8.50
2018-05-09T08:09:27.234Z,10.53
2018-05-09T08:11:58.022Z,13.33
2018-05-09T08:14:28.976Z,11.20
2018-05-09T08:17:00.846Z,10.70
2018-05-09T08:19:31.623Z,12.33
2018-05-09T08:22:03.149Z,10.37
2018-05-09T08:24:33.998Z,8.27
2018-05-09T08:27:05.474Z,9.50
2018-05-09T08:29:36.554Z,11.80
2018-05-09T08:32:07.400Z,9.00
2018-05-09T08:34:38.345Z,23.93
2018-05-09T08:37:09.284Z,12.30
2018-05-09T08:39:40.677Z,12.60
2018-05-09T08:42:11.604Z,9.67
2018-05-09T08:44:42.529Z,10.90
2018-05-09T08:47:13.356Z,13.17
2018-05-09T08:49:44.213Z,11.37
2018-05-09T08:52:15.900Z,9.23
2018-05-09T08:54:46.531Z,8.03
2018-05-09T08:57:17.393Z,6.73
2018-05-09T08:59:49.506Z,10.90
2018-05-09T09:02:21.231Z,7.90
2018-05-09T09:04:52.003Z,11.90
2018-05-09T09:07:22.884Z,7.57
2018-05-09T09:09:53.643Z,9.90
2018-05-09T09:12:25.024Z,7.80
2018-05-09T09:14:56.517Z,10.10
2018-05-09T09:17:27.577Z,9.07
2018-05-09T09:19:59.644Z,7.43
2018-05-09T09:22:30.516Z,9.90
2018-05-09T09:25:01.890Z,13.20
2018-05-09T09:27:33.940Z,8.33
2018-05-09T09:30:05.338Z,13.33
2018-05-09T09:32:36.570Z,8.57
2018-05-09T09:35:07.522Z,6.90
2018-05-09T09:37:38.493Z,6.83
2018-05-09T09:40:09.182Z,7.90
2018-05-09T09:42:40.018Z,7.43
2018-05-09T09:45:11.839Z,9.77
2018-05-09T09:47:44.413Z,8.70
2018-05-09T09:50:15.123Z,15.00
2018-05-09T09:52:46.043Z,6.60
2018-05-09T09:55:17.667Z,5.67
2018-05-09T09:57:48.455Z,7.10
2018-05-09T10:00:23.409Z,8.13
2018-05-09T10:02:54.424Z,5.53
2018-05-09T10:05:25.275Z,9.90
2018-05-09T10:07:56.504Z,12.83
2018-05-09T10:10:27.722Z,7.13
2018-05-09T10:12:58.951Z,9.03
2018-05-09T10:15:31.265Z,9.10
2018-05-09T10:18:03.030Z,10.03
2018-05-09T10:20:36.523Z,6.53
2018-05-09T10:23:07.949Z,7.90
2018-05-09T10:25:39.265Z,5.47
2018-05-09T10:28:10.312Z,7.40
2018-05-09T10:30:41.526Z,7.13
2018-05-09T10:33:13.843Z,6.70
2018-05-09T10:35:47.686Z,6.50
2018-05-09T10:38:18.686Z,8.03
2018-05-09T10:40:49.363Z,5.73
2018-05-09T10:43:20.254Z,8.83
2018-05-09T10:45:53.384Z,9.77
2018-05-09T10:48:24.339Z,7.27
2018-05-09T10:50:55.679Z,7.70
2018-05-09T10:53:26.710Z,6.90
2018-05-09T10:55:57.405Z,7.53
2018-05-09T10:58:29.159Z,9.03
2018-05-09T11:01:00.536Z,9.23
2018-05-09T11:03:31.454Z,7.60
2018-05-09T11:06:02.854Z,7.00
2018-05-09T11:08:36.089Z,9.77
2018-05-09T11:11:08.482Z,8.93
2018-05-09T11:13:39.494Z,6.53
2018-05-09T11:16:10.510Z,5.90
2018-05-09T11:18:41.319Z,6.03
2018-05-09T11:21:12.451Z,7.37
2018-05-09T11:23:44.174Z,8.07
2018-05-09T11:26:14.860Z,6.33
2018-05-09T11:34:48.521Z,5.93
2018-05-09T11:37:19.757Z,5.50
2018-05-09T11:39:51.596Z,8.93
2018-05-09T11:42:28.190Z,7.20
2018-05-09T11:44:59.186Z,8.10
2018-05-09T11:47:39.036Z,7.70
2018-05-09T11:50:12.128Z,8.97
2018-05-09T11:52:44.240Z,8.20
2018-05-09T11:55:15.254Z,5.50
2018-05-09T11:57:47.326Z,7.83
2018-05-09T12:00:23.858Z,7.27
2018-05-09T12:02:54.884Z,6.13
2018-05-09T12:05:26.232Z,7.70
2018-05-09T12:08:04.966Z,5.00
2018-05-09T12:10:36.964Z,6.37
2018-05-09T12:13:09.188Z,9.43
2018-05-09T12:15:43.084Z,5.53
2018-05-09T12:18:14.366Z,6.50
2018-05-09T12:20:50.462Z,6.60
2018-05-09T12:23:21.847Z,7.00
2018-05-09T12:25:54.558Z,6.70
2018-05-09T12:28:34.267Z,8.57
2018-05-09T12:31:05.334Z,7.10
2018-05-09T12:33:37.292Z,6.77
2018-05-09T12:36:08.336Z,8.20
2018-05-09T12:38:40.935Z,11.90
2018-05-09T12:41:12.564Z,9.20
2018-05-09T12:43:45.383Z,8.80
2018-05-09T12:46:37.001Z,6.67
2018-05-09T12:49:08.364Z,5.93
2018-05-09T12:51:40.199Z,7.60
2018-05-09T12:54:11.555Z,11.30
2018-05-09T12:56:43.810Z,11.00
2018-05-09T12:59:15.023Z,7.30
2018-05-09T13:01:46.675Z,11.33
2018-05-09T13:04:29.036Z,13.47
2018-05-09T13:07:02.022Z,14.37
2018-05-09T13:09:33.797Z,8.47
2018-05-09T13:12:05.095Z,13.30
2018-05-09T13:14:36.396Z,11.27
2018-05-09T13:17:08.489Z,6.37
2018-05-09T13:19:40.969Z,6.63
2018-05-09T13:22:12.157Z,12.10
2018-05-09T13:24:43.941Z,6.27
2018-05-09T13:27:25.380Z,21.33
2018-05-09T13:29:56.241Z,11.23
2018-05-09T13:32:27.874Z,8.30
2018-05-09T13:34:59.966Z,9.03
2018-05-09T13:37:31.657Z,7.27
2018-05-09T13:40:03.163Z,7.37
2018-05-09T13:42:34.582Z,10.60
2018-05-09T13:45:06.546Z,7.73
2018-05-09T13:47:47.298Z,5.90
2018-05-09T13:50:19.742Z,7.57
2018-05-09T13:52:52.356Z,8.13
2018-05-09T13:55:24.200Z,7.03
2018-05-09T13:57:55.397Z,5.97
2018-05-09T14:00:32.089Z,11.00
2018-05-09T14:03:03.934Z,8.00
2018-05-09T14:05:36.901Z,9.97
2018-05-09T14:08:08.488Z,7.83
2018-05-09T14:10:39.548Z,7.73
2018-05-09T14:13:11.457Z,9.53
2018-05-09T14:15:43.438Z,8.37
2018-05-09T14:18:15.873Z,8.30
2018-05-09T14:20:48.987Z,7.90
2018-05-09T14:23:19.965Z,12.83
2018-05-09T14:25:51.167Z,6.57
2018-05-09T14:28:29.375Z,11.73
2018-05-09T14:31:00.343Z,6.80
2018-05-09T14:33:32.139Z,11.47
2018-05-09T14:36:03.243Z,5.83
2018-05-09T14:38:34.184Z,6.23
2018-05-09T14:41:05.982Z,17.77
2018-05-09T14:43:37.577Z,9.63
2018-05-09T14:46:08.976Z,11.70
2018-05-09T14:48:41.005Z,12.57
2018-05-09T14:51:14.026Z,8.97
2018-05-09T14:53:45.816Z,9.70
2018-05-09T14:56:16.776Z,8.93
2018-05-09T14:58:47.755Z,14.30
2018-05-09T15:01:19.125Z,7.20
2018-05-09T15:04:12.135Z,9.10
2018-05-09T15:06:44.321Z,9.10
2018-05-09T15:09:16.846Z,7.07
2018-05-09T15:11:47.915Z,8.93
2018-05-09T15:14:19.818Z,10.77
2018-05-09T15:16:51.406Z,9.27
2018-05-09T15:19:22.342Z,12.53
2018-05-09T15:21:53.959Z,12.77
2018-05-09T15:24:26.476Z,11.50
2018-05-09T15:26:58.302Z,9.93
2018-05-09T15:29:30.022Z,9.20
2018-05-09T15:32:01.271Z,10.73
2018-05-09T15:34:33.663Z,8.60
2018-05-09T15:37:05.525Z,12.37
2018-05-09T15:39:37.390Z,9.30
2018-05-09T15:42:09.818Z,13.23
2018-05-09T15:44:41.785Z,9.63
2018-05-09T15:47:13.937Z,10.97
2018-05-09T15:49:44.770Z,6.93
2018-05-09T15:52:16.453Z,11.50
2018-05-09T15:54:49.218Z,5.87
2018-05-09T15:57:20.939Z,7.37
2018-05-09T15:59:52.693Z,10.80
2018-05-09T16:02:44.062Z,8.40
2018-05-09T16:05:15.045Z,13.30
2018-05-09T16:07:46.734Z,8.20
2018-05-09T16:10:17.673Z,12.93
2018-05-09T16:12:49.212Z,13.57
2018-05-09T16:15:20.083Z,8.23
2018-05-09T16:17:51.164Z,7.33
2018-05-09T16:20:23.953Z,8.03
2018-05-09T16:22:54.879Z,10.90
2018-05-09T16:25:29.278Z,12.17
2018-05-09T16:28:00.412Z,16.63
2018-05-09T16:30:31.594Z,11.50
2018-05-09T16:33:02.654Z,9.13
2018-05-09T16:35:33.610Z,7.43
2018-05-09T16:38:04.485Z,8.53
2018-05-09T16:40:35.398Z,9.87
2018-05-09T16:43:06.259Z,8.60
2018-05-09T16:45:38.843Z,7.90
2018-05-09T16:48:09.708Z,13.10
2018-05-09T16:50:42.091Z,15.80
2018-05-09T16:53:13.744Z,8.10
2018-05-09T16:55:44.744Z,11.67
2018-05-09T16:58:15.553Z,9.10
2018-05-09T17:00:46.471Z,10.83
2018-05-09T17:03:17.354Z,7.47
2018-05-09T17:05:53.713Z,14.67
2018-05-09T17:08:24.375Z,9.23
2018-05-09T17:10:56.570Z,7.47
2018-05-09T17:13:35.601Z,10.23
2018-05-09T17:16:06.533Z,10.50
2018-05-09T17:18:39.669Z,14.17
2018-05-09T17:21:23.459Z,6.43
2018-05-09T17:23:55.288Z,11.30
2018-05-09T17:26:28.028Z,8.03
2018-05-09T17:29:01.381Z,9.30
2018-05-09T17:31:37.235Z,7.93
2018-05-09T17:34:08.909Z,7.77
2018-05-09T17:36:41.230Z,11.90
2018-05-09T17:39:13.620Z,6.60
2018-05-09T17:41:44.701Z,9.03
2018-05-09T17:44:16.243Z,7.07
2018-05-09T17:46:48.177Z,9.43
2018-05-09T17:49:19.383Z,10.40
2018-05-09T17:51:50.494Z,11.77
2018-05-09T17:54:21.640Z,8.50
2018-05-09T17:56:53.011Z,11.50
2018-05-09T17:59:24.919Z,8.53
2018-05-09T18:01:56.454Z,13.13
2018-05-09T18:04:29.202Z,9.93
2018-05-09T18:07:13.183Z,10.97
2018-05-09T18:09:44.723Z,13.73
2018-05-09T18:12:16.427Z,15.50
2018-05-09T18:14:47.691Z,13.13
2018-05-09T18:17:19.305Z,9.70
2018-05-09T18:19:50.300Z,12.17
2018-05-09T18:22:21.174Z,11.87
2018-05-09T18:24:52.962Z,12.80
2018-05-09T18:27:25.043Z,10.57
2018-05-09T18:29:56.053Z,10.93
2018-05-09T18:32:28.393Z,14.90
2018-05-09T18:35:23.603Z,19.53
2018-05-09T18:37:55.204Z,17.47
2018-05-09T18:40:27.752Z,22.77
2018-05-09T18:43:00.097Z,26.00
2018-05-09T18:45:32.303Z,21.33
2018-05-09T18:48:03.781Z,18.60
2018-05-09T18:50:36.724Z,18.80
2018-05-09T18:53:08.117Z,15.00
2018-05-09T18:55:38.997Z,12.33
2018-05-09T18:58:10.389Z,15.57
2018-05-09T19:00:41.289Z,9.37
2018-05-09T19:03:28.135Z,10.20
2018-05-09T19:05:59.375Z,9.00
2018-05-09T19:08:30.187Z,12.43
2018-05-09T19:11:01.294Z,11.90
2018-05-09T19:13:32.409Z,14.70
2018-05-09T19:16:03.274Z,11.37
2018-05-09T19:18:36.405Z,15.77
2018-05-09T19:21:07.059Z,16.80
2018-05-09T19:23:37.658Z,19.50
2018-05-09T19:26:09.373Z,14.63
2018-05-09T19:28:40.666Z,14.37
2018-05-09T19:31:11.396Z,13.30
2018-05-09T19:33:42.468Z,16.00
2018-05-09T19:36:13.457Z,12.20
2018-05-09T19:38:44.058Z,14.20
2018-05-09T19:41:14.818Z,12.17
2018-05-09T19:43:45.470Z,14.20
2018-05-09T19:46:16.434Z,13.00
2018-05-09T19:48:53.929Z,14.13
2018-05-09T19:51:24.642Z,14.73
2018-05-09T19:53:55.241Z,11.70
2018-05-09T19:56:28.251Z,20.53
2018-05-09T19:58:59.041Z,16.57
2018-05-09T20:01:29.792Z,12.07
2018-05-09T20:04:00.605Z,15.70
2018-05-09T20:06:41.467Z,17.43
2018-05-09T20:09:13.129Z,16.00
2018-05-09T20:11:43.869Z,20.20
2018-05-09T20:14:14.526Z,16.07
2018-05-09T20:16:45.144Z,15.13
2018-05-09T20:19:15.924Z,19.17
2018-05-09T20:21:46.552Z,20.27
2018-05-09T20:24:17.361Z,15.83
2018-05-09T20:26:49.303Z,15.33
2018-05-09T20:29:20.018Z,17.13
2018-05-09T20:32:01.786Z,14.93
2018-05-09T20:34:33.273Z,14.27
2018-05-09T20:37:03.911Z,17.50
2018-05-09T20:39:35.069Z,16.77
2018-05-09T20:42:05.912Z,16.73
2018-05-09T20:44:36.668Z,17.37
2018-05-09T20:47:07.354Z,15.47
2018-05-09T20:49:38.113Z,13.23
2018-05-09T20:52:09.318Z,22.20
2018-05-09T20:54:40.259Z,19.13
2018-05-09T20:57:10.821Z,16.57
2018-05-09T20:59:41.681Z,15.47
2018-05-09T21:02:12.354Z,15.40
2018-05-09T21:04:43.145Z,20.90
2018-05-09T21:07:15.516Z,15.27
2018-05-09T21:09:46.146Z,18.80
2018-05-09T21:12:29.225Z,19.13
2018-05-09T21:14:59.996Z,20.37
2018-05-09T21:17:31.502Z,17.20
2018-05-09T21:20:02.429Z,18.13
2018-05-09T21:22:33.448Z,15.33
2018-05-09T21:25:07.968Z,15.90
2018-05-09T21:27:38.586Z,14.97
2018-05-09T21:30:10.434Z,19.80
2018-05-09T21:32:41.031Z,18.13
2018-05-09T21:35:14.135Z,13.93
2018-05-09T21:37:44.705Z,14.03
2018-05-09T21:40:15.222Z,16.60
2018-05-09T21:42:45.657Z,17.20
2018-05-09T21:45:16.123Z,18.10
2018-05-09T21:47:46.769Z,13.17
2018-05-09T21:50:19.106Z,13.80
2018-05-09T21:52:49.711Z,14.97
2018-05-09T21:55:20.230Z,18.37
2018-05-09T21:57:50.803Z,18.77
2018-05-09T22:00:23.147Z,15.80
2018-05-09T22:02:54.216Z,17.20
2018-05-09T22:05:24.764Z,25.60
2018-05-09T22:07:55.403Z,14.07
2018-05-09T22:10:26.063Z,14.80
2018-05-09T22:12:56.592Z,13.90
2018-05-09T22:15:27.282Z,16.60
2018-05-09T22:17:57.864Z,15.00
2018-05-09T22:20:28.977Z,15.50
2018-05-09T22:23:00.310Z,18.00
2018-05-09T22:25:31.038Z,17.23
2018-05-09T22:28:01.537Z,17.33
2018-05-09T22:30:32.049Z,14.97
2018-05-09T22:33:03.328Z,16.23
2018-05-09T22:35:33.814Z,20.27
2018-05-09T22:38:04.352Z,18.80
2018-05-09T22:40:35.157Z,14.50
2018-05-09T22:43:05.721Z,13.50
2018-05-09T22:45:36.322Z,18.40
2018-05-09T22:48:07.011Z,18.70
2018-05-09T22:50:37.662Z,17.27
2018-05-09T22:53:08.387Z,17.03
2018-05-09T22:55:40.455Z,16.57
2018-05-09T22:58:11.722Z,14.20
2018-05-09T23:00:43.175Z,22.53
2018-05-09T23:03:13.913Z,16.03
2018-05-09T23:05:45.369Z,16.53
2018-05-09T23:08:15.913Z,17.00
2018-05-09T23:10:46.449Z,19.27
2018-05-09T23:13:17.075Z,16.53
2018-05-09T23:15:47.673Z,15.73
2018-05-09T23:18:18.293Z,16.10
2018-05-09T23:20:48.822Z,15.80
2018-05-09T23:23:19.423Z,14.20
2018-05-09T23:25:50.181Z,16.27
2018-05-09T23:28:20.817Z,16.07
2018-05-09T23:31:01.550Z,15.93
2018-05-09T23:33:32.180Z,13.60
2018-05-09T23:36:03.070Z,13.20
2018-05-09T23:38:33.618Z,11.30
2018-05-09T23:41:04.297Z,16.43
2018-05-09T23:43:34.927Z,12.77
2018-05-09T23:46:05.572Z,12.73
2018-05-09T23:48:36.853Z,11.27
2018-05-09T23:51:07.958Z,14.50
2018-05-09T23:53:38.505Z,13.57
2018-05-09T23:56:08.971Z,14.20
2018-05-09T23:58:40.248Z,18.43
